Aviosuperficie AS77

IT-0302 · Friuli Venezia Giulia, Italy

October 6, 2022

Time Code Weather Temp. Visibility Ceiling Wind METAR/SPECI
19:55
V
17 °C 10 km+ - 350° 350° 4 kt METAR LIPI 061755Z 35004KT CAVOK 17/14 Q1027 RMK SKC VIS MIN 9999 WIND THR06 04003KT WIND THR24 35004KT BLU
18:55
V
20 °C 10 km+ - 330° 330° 1 kt METAR LIPI 061655Z 33001KT CAVOK 20/14 Q1027
17:55
V
23 °C 10 km+ - 260° 260° 2 kt METAR LIPI 061555Z 26002KT CAVOK 23/15 Q1027 RMK FEW FEW200 VIS MIN 9999 WIND THR06 30004KT WIND THR24 27003KT BLU
16:55
V
24 °C 10 km+ - 230° 230° 3 kt METAR LIPI 061455Z 23003KT CAVOK 24/14 Q1027 RMK FEW FEW200 VIS MIN 9999 WIND THR06 25004KT WIND THR24 24002KT BLU
15:55
V
24 °C 10 km+ - 160° 160° 3 kt METAR LIPI 061355Z 16003KT CAVOK 24/13 Q1027
14:55
V
23 °C 10 km+ - 180° 180° 3 kt METAR LIPI 061255Z 18003KT CAVOK 23/14 Q1027 RMK FEW FEW200 VIS MIN 9999 WIND THR06 26003KT WIND THR24 23004KT BLU
13:55
V
23 °C 10 km+ - 150° 150° 2 kt METAR LIPI 061155Z 15002KT CAVOK 23/14 Q1027
12:55
V
22 °C 10 km+ - Var Var 2 kt METAR LIPI 061055Z VRB02KT CAVOK 22/15 Q1028 RMK SCT SCT200 VIS MIN 9999 WIND THR06 VRB001KT WIND THR24 13003KT BLU
11:55
V
20 °C 10 km+ - 130° 130° 2 kt METAR LIPI 060955Z 13002KT 9999 FEW040 20/14 Q1028 RMK SCT SCT200 VIS MIN 9999 WIND THR06 02002KT WIND THR24 09002KT BLU
10:55
V
19 °C 10 km+ - 140° 140° 1 kt METAR LIPI 060855Z 14001KT CAVOK 19/15 Q1028 RMK SCT SCT200 VIS MIN 9999 WIND THR06 25001KT WIND THR24 21002KT BLU
09:55
V
17 °C 10 km+ - 030° 030° 1 kt METAR LIPI 060755Z 03001KT 9999 FEW040 17/14 Q1028
08:55
M
16 °C 7 km - 360° 360° 3 kt METAR LIPI 060655Z 36003KT 7000 FEW040 16/13 Q1027
08:27
M
15 °C 6 km - 340° 340° 3 kt METAR LIPI 060627Z 34003KT 6000 FEW025 SCT040 15/13 Q1026 RMK BKN VIS MIN 6000 WIND THR06 01002KT WIND THR24 35003KT WHT
07:55
I
15 °C 3.5 km 4,000 ft 340° 340° 4 kt METAR LIPI 060555Z 34004KT 3500 BR FEW025 BKN040 15/13 Q1026
07:20
I
14 °C 3.5 km 4,000 ft 340° 340° 3 kt METAR LIPI 060520Z 34003KT 3500 BR FEW025 BKN040 14/13 Q1026 RMK BKN VIS MIN 3500 WIND THR06 03003KT WIND THR24 33002KT YLO
06:55
M
14 °C 7 km - 360° 360° 3 kt METAR LIPI 060455Z 36003KT 7000 SCT040 14/13 Q1026 RMK SCT VIS MIN 7000 WIND THR06 04002KT WIND THR24 03003KT WHT
05:55
M
14 °C 7 km 4,000 ft 360° 360° 1 kt METAR LIPI 060355Z 36001KT 7000 BKN040 14/12 Q1026 03003KT
04:55
M
14 °C 7 km 3,500 ft 340° 340° 3 kt METAR LIPI 060255Z 34003KT 7000 BKN035 14/12 Q1026
03:55
M
14 °C 7 km 4,000 ft 020° 020° 3 kt METAR LIPI 060155Z 02003KT 7000 BKN040 14/12 Q1027
02:55
M
14 °C 7 km 4,000 ft 040° 040° 3 kt METAR LIPI 060055Z 04003KT 7000 BKN040 14/12 Q1027
01:55
M
12 °C 7 km - 030° 030° 3 kt METAR LIPI 052355Z 03003KT 7000 SCT030 12/10 Q1027
00:55
V
12 °C 10 km+ - 040° 040° 4 kt METAR LIPI 052255Z 04004KT CAVOK 12/10 Q1027

October 5, 2022

Time Code Weather Temp. Visibility Ceiling Wind METAR/SPECI
23:55
V
12 °C 10 km+ - 340° 340° 3 kt METAR LIPI 052155Z 34003KT CAVOK 12/10 Q1027 RMK SCT SCT200 VIS MIN 9999 WIND THR06 03003KT WIND THR24 02002KT BLU
22:55
V
12 °C 10 km+ - 340° 340° 3 kt METAR LIPI 052055Z 34003KT CAVOK 12/10 Q1027
21:55
V
14 °C 10 km+ - 280° 280° 1 kt METAR LIPI 051955Z 28001KT CAVOK 14/12 Q1026
20:55
V
14 °C 10 km+ - 280° 280° 1 kt METAR LIPI 051855Z 28001KT CAVOK 14/13 Q1026
19:55
V
17 °C 10 km+ - 190° 190° 1 kt METAR LIPI 051755Z 19001KT CAVOK 17/15 Q1026
18:55
V
18 °C 10 km+ - 140° 140° 1 kt METAR LIPI 051655Z 14001KT 9999 SCT050 18/16 Q1026
17:55
V
19 °C 10 km+ 5,000 ft 190° 190° 5 kt METAR LIPI 051555Z 19005KT 9999 FEW040 BKN050 19/15 Q1026
16:55
V
19 °C 10 km+ - 190° 190° 6 kt METAR LIPI 051455Z 19006KT 9999 FEW025 SCT040 19/16 Q1026
15:55
V
20 °C 10 km+ 5,000 ft 160° 160° 6 kt METAR LIPI 051355Z 16006KT 9999 FEW030 BKN050 20/16 Q1026
14:55
V
20 °C 10 km+ - 190° 190° 5 kt METAR LIPI 051255Z 19005KT 9999 SCT030 SCT050 20/15 Q1026
13:55
V
20 °C 10 km+ - 180° 180° 5 kt METAR LIPI 051155Z 18005KT 9999 SCT050 SCT060 20/16 Q1027
12:55
V
19 °C 10 km+ - 150° 150° 3 kt METAR LIPI 051055Z 15003KT 9999 SCT050 19/15 Q1027 RMK BKN VIS MIN 9999 WIND THR06 19004KT WIND THR24 18004KT BLU
11:55
V
20 °C 10 km+ 4,600 ft 120° 120° 1 kt METAR LIPI 050955Z 12001KT 9999 BKN046 20/14 Q1027
10:55
V
17 °C 10 km+ 5,000 ft 050° 050° 3 kt METAR LIPI 050855Z 05003KT 9999 BKN050 17/13 Q1027
09:55
V
16 °C 10 km+ 4,500 ft 360° 360° 2 kt METAR LIPI 050755Z 36002KT 9999 FEW030 BKN045 16/13 Q1026
08:55
V
14 °C 10 km+ 4,500 ft Var Var 2 kt METAR LIPI 050655Z VRB02KT 9999 FEW013 BKN045 14/12 Q1026
07:55
V
13 °C 10 km+ 4,500 ft 340° 340° 3 kt METAR LIPI 050555Z 34003KT 9999 FEW030 BKN045 13/11 Q1026
06:55
V
13 °C 10 km+ 4,000 ft 010° 010° 2 kt METAR LIPI 050455Z 01002KT 9999 FEW030 BKN040 13/12 Q1026 RMK OVC VIS MIN 9999 WIND THR06 05003KT WIND THR24 02002KT BLU
05:55
V
12 °C 10 km+ - 340° 340° 5 kt METAR LIPI 050355Z 34005KT 9999 SCT040 12/11 Q1025
04:55
V
12 °C 10 km+ - 350° 350° 5 kt METAR LIPI 050255Z 35005KT CAVOK 12/12 Q1026 RMK SKC VIS MIN 9999 WIND THR06 03005KT WIND THR24 36005KT BLU
03:55
V
12 °C 10 km+ - 340° 340° 5 kt METAR LIPI 050155Z 34005KT 9999 FEW030 12/11 Q1026
02:55
V
12 °C 10 km+ - 350° 350° 5 kt METAR LIPI 050055Z 35005KT 9999 SCT030 12/12 Q1026 RMK SCT VIS MIN 9999 WIND THR06 01003KT WIND THR24 36004KT BLU
01:55
V
12 °C 10 km+ - 010° 010° 2 kt METAR LIPI 042355Z 01002KT CAVOK 12/12 Q1025
00:55
V
12 °C 10 km+ - 350° 350° 5 kt METAR LIPI 042255Z 35005KT CAVOK 12/11 Q1025 RMK SKC VIS MIN 9999 WIND THR06 03004KT WIND THR24 01003KT BLU

October 4, 2022

Time Code Weather Temp. Visibility Ceiling Wind METAR/SPECI
23:55
V
13 °C 10 km+ - 340° 340° 6 kt METAR LIPI 042155Z 34006KT CAVOK 13/11 Q1025
22:55
V
13 °C 10 km+ - 340° 340° 5 kt METAR LIPI 042055Z 34005KT CAVOK 13/12 Q1025
21:55
V
14 °C 10 km+ - 360° 360° 2 kt METAR LIPI 041955Z 36002KT CAVOK 14/13 Q1024
20:55
V
17 °C 10 km+ - 350° 350° 1 kt METAR LIPI 041855Z 35001KT 9999 SCT050 17/15 Q1023 RMK SCT VIS MIN 9999 WIND THR06 09001KT WIND THR24 33001KT BLU
19:55
V
18 °C 10 km+ 5,000 ft 360° 360° 2 kt METAR LIPI 041755Z 36002KT 9999 BKN050 18/15 Q1023
18:55
V
19 °C 10 km+ 5,000 ft 350° 350° 1 kt METAR LIPI 041655Z 35001KT 9999 BKN050 19/14 Q1022
17:55
V
20 °C 10 km+ 3,000 ft 040° 040° 5 kt METAR LIPI 041555Z 04005KT 9999 BKN030 20/14 Q1022
16:55
V
20 °C 10 km+ 3,000 ft 060° 060° 4 kt METAR LIPI 041455Z 06004KT 9999 BKN030 20/14 Q1022 RMK OVC SCT180 VIS MIN 9999 WIND THR06 12003KT WIND THR24 13002KT BLU
Older data

We and third parties follow your internet behavior on our website with cookies. If you continue, we assume you agree with our cookie policy. Learn more